sensor_id;sensor_type;location;lat;lon;timestamp;P1;durP1;ratioP1;P2;durP2;ratioP2
81864;SDS011;71313;43.514;1.500;2024-02-04T00:02:04;28.33;;;13.05;;
81864;SDS011;71313;43.514;1.500;2024-02-04T00:04:32;27.20;;;13.05;;
81864;SDS011;71313;43.514;1.500;2024-02-04T00:06:58;33.40;;;14.55;;
81864;SDS011;71313;43.514;1.500;2024-02-04T00:09:23;31.25;;;14.32;;
81864;SDS011;71313;43.514;1.500;2024-02-04T00:11:49;32.15;;;14.50;;
81864;SDS011;71313;43.514;1.500;2024-02-04T00:14:14;32.20;;;13.52;;
81864;SDS011;71313;43.514;1.500;2024-02-04T00:16:40;30.60;;;14.57;;
81864;SDS011;71313;43.514;1.500;2024-02-04T00:19:05;32.58;;;14.50;;
81864;SDS011;71313;43.514;1.500;2024-02-04T00:21:31;32.85;;;14.65;;
81864;SDS011;71313;43.514;1.500;2024-02-04T00:23:56;29.92;;;12.98;;
81864;SDS011;71313;43.514;1.500;2024-02-04T00:26:21;33.67;;;14.27;;
81864;SDS011;71313;43.514;1.500;2024-02-04T00:28:47;34.25;;;14.50;;
81864;SDS011;71313;43.514;1.500;2024-02-04T00:31:12;30.77;;;13.65;;
81864;SDS011;71313;43.514;1.500;2024-02-04T00:33:37;31.95;;;13.95;;
81864;SDS011;71313;43.514;1.500;2024-02-04T00:36:03;30.27;;;13.73;;
81864;SDS011;71313;43.514;1.500;2024-02-04T00:38:28;29.50;;;13.27;;
81864;SDS011;71313;43.514;1.500;2024-02-04T00:40:54;29.83;;;13.68;;
81864;SDS011;71313;43.514;1.500;2024-02-04T00:43:21;32.28;;;14.02;;
81864;SDS011;71313;43.514;1.500;2024-02-04T00:45:47;33.15;;;14.85;;
81864;SDS011;71313;43.514;1.500;2024-02-04T00:48:12;33.90;;;14.30;;
81864;SDS011;71313;43.514;1.500;2024-02-04T00:50:37;33.28;;;13.93;;
81864;SDS011;71313;43.514;1.500;2024-02-04T00:53:03;32.03;;;14.27;;
81864;SDS011;71313;43.514;1.500;2024-02-04T00:55:28;35.30;;;14.80;;
81864;SDS011;71313;43.514;1.500;2024-02-04T00:57:54;36.22;;;15.13;;
81864;SDS011;71313;43.514;1.500;2024-02-04T01:00:20;38.42;;;15.23;;
81864;SDS011;71313;43.514;1.500;2024-02-04T01:02:46;38.83;;;16.10;;
81864;SDS011;71313;43.514;1.500;2024-02-04T01:05:11;36.25;;;14.32;;
81864;SDS011;71313;43.514;1.500;2024-02-04T01:07:37;35.30;;;15.43;;
81864;SDS011;71313;43.514;1.500;2024-02-04T01:10:03;32.90;;;13.80;;
81864;SDS011;71313;43.514;1.500;2024-02-04T01:12:28;32.35;;;14.50;;
81864;SDS011;71313;43.514;1.500;2024-02-04T01:14:54;34.50;;;13.88;;
81864;SDS011;71313;43.514;1.500;2024-02-04T01:17:19;30.85;;;13.63;;
81864;SDS011;71313;43.514;1.500;2024-02-04T01:19:44;34.47;;;13.90;;
81864;SDS011;71313;43.514;1.500;2024-02-04T01:22:10;35.83;;;14.30;;
81864;SDS011;71313;43.514;1.500;2024-02-04T01:24:35;36.28;;;15.73;;
81864;SDS011;71313;43.514;1.500;2024-02-04T01:27:00;35.47;;;14.38;;
81864;SDS011;71313;43.514;1.500;2024-02-04T01:29:26;32.85;;;13.98;;
81864;SDS011;71313;43.514;1.500;2024-02-04T01:31:51;32.78;;;12.95;;
81864;SDS011;71313;43.514;1.500;2024-02-04T01:34:17;31.15;;;13.32;;
81864;SDS011;71313;43.514;1.500;2024-02-04T01:36:42;34.03;;;13.43;;
81864;SDS011;71313;43.514;1.500;2024-02-04T01:39:08;31.23;;;13.10;;
81864;SDS011;71313;43.514;1.500;2024-02-04T01:41:35;35.13;;;14.02;;
81864;SDS011;71313;43.514;1.500;2024-02-04T01:44:01;30.60;;;13.77;;
81864;SDS011;71313;43.514;1.500;2024-02-04T01:46:26;35.80;;;14.25;;
81864;SDS011;71313;43.514;1.500;2024-02-04T01:48:52;34.45;;;14.35;;
81864;SDS011;71313;43.514;1.500;2024-02-04T01:51:18;30.38;;;12.88;;
81864;SDS011;71313;43.514;1.500;2024-02-04T01:53:45;32.60;;;13.10;;
81864;SDS011;71313;43.514;1.500;2024-02-04T01:56:11;31.67;;;13.60;;
81864;SDS011;71313;43.514;1.500;2024-02-04T01:58:38;29.38;;;13.60;;
81864;SDS011;71313;43.514;1.500;2024-02-04T02:01:04;33.30;;;13.93;;
81864;SDS011;71313;43.514;1.500;2024-02-04T02:03:31;32.80;;;13.90;;
81864;SDS011;71313;43.514;1.500;2024-02-04T02:05:57;30.42;;;13.55;;
81864;SDS011;71313;43.514;1.500;2024-02-04T02:08:23;32.92;;;13.93;;
81864;SDS011;71313;43.514;1.500;2024-02-04T02:10:48;37.33;;;13.60;;
81864;SDS011;71313;43.514;1.500;2024-02-04T02:13:22;31.30;;;12.82;;
81864;SDS011;71313;43.514;1.500;2024-02-04T02:15:52;29.30;;;13.30;;
81864;SDS011;71313;43.514;1.500;2024-02-04T02:18:36;31.42;;;13.50;;
81864;SDS011;71313;43.514;1.500;2024-02-04T02:21:29;31.75;;;13.57;;
81864;SDS011;71313;43.514;1.500;2024-02-04T02:26:47;33.85;;;13.55;;
81864;SDS011;71313;43.514;1.500;2024-02-04T02:29:14;34.83;;;14.15;;
81864;SDS011;71313;43.514;1.500;2024-02-04T02:31:39;34.97;;;13.45;;
81864;SDS011;71313;43.514;1.500;2024-02-04T02:34:07;35.35;;;14.30;;
81864;SDS011;71313;43.514;1.500;2024-02-04T02:36:46;31.92;;;13.40;;
81864;SDS011;71313;43.514;1.500;2024-02-04T02:39:21;31.98;;;13.73;;
81864;SDS011;71313;43.514;1.500;2024-02-04T02:41:49;36.65;;;14.38;;
81864;SDS011;71313;43.514;1.500;2024-02-04T02:44:16;38.40;;;14.63;;
81864;SDS011;71313;43.514;1.500;2024-02-04T02:46:42;35.20;;;14.20;;
81864;SDS011;71313;43.514;1.500;2024-02-04T02:49:09;37.63;;;15.57;;
81864;SDS011;71313;43.514;1.500;2024-02-04T02:51:35;38.90;;;15.73;;
81864;SDS011;71313;43.514;1.500;2024-02-04T02:54:00;35.63;;;14.95;;
81864;SDS011;71313;43.514;1.500;2024-02-04T02:56:25;36.25;;;14.07;;
81864;SDS011;71313;43.514;1.500;2024-02-04T02:58:51;36.17;;;14.05;;
81864;SDS011;71313;43.514;1.500;2024-02-04T03:01:16;37.30;;;14.55;;
81864;SDS011;71313;43.514;1.500;2024-02-04T03:03:41;37.03;;;14.70;;
81864;SDS011;71313;43.514;1.500;2024-02-04T03:06:07;35.55;;;14.70;;
81864;SDS011;71313;43.514;1.500;2024-02-04T03:08:33;38.90;;;14.88;;
81864;SDS011;71313;43.514;1.500;2024-02-04T03:10:58;35.42;;;14.25;;
81864;SDS011;71313;43.514;1.500;2024-02-04T03:13:23;42.53;;;15.10;;
81864;SDS011;71313;43.514;1.500;2024-02-04T03:15:49;37.60;;;14.85;;
81864;SDS011;71313;43.514;1.500;2024-02-04T03:18:14;33.88;;;13.25;;
81864;SDS011;71313;43.514;1.500;2024-02-04T03:20:39;33.22;;;13.43;;
81864;SDS011;71313;43.514;1.500;2024-02-04T03:23:05;33.38;;;12.82;;
81864;SDS011;71313;43.514;1.500;2024-02-04T03:25:30;31.48;;;13.20;;
81864;SDS011;71313;43.514;1.500;2024-02-04T03:27:56;34.67;;;13.38;;
81864;SDS011;71313;43.514;1.500;2024-02-04T03:30:21;36.80;;;13.80;;
81864;SDS011;71313;43.514;1.500;2024-02-04T03:32:46;34.78;;;12.70;;
81864;SDS011;71313;43.514;1.500;2024-02-04T03:35:12;30.20;;;11.95;;
81864;SDS011;71313;43.514;1.500;2024-02-04T03:37:37;32.25;;;12.13;;
81864;SDS011;71313;43.514;1.500;2024-02-04T03:40:03;33.25;;;12.50;;
81864;SDS011;71313;43.514;1.500;2024-02-04T03:42:28;32.72;;;11.82;;
81864;SDS011;71313;43.514;1.500;2024-02-04T03:44:54;31.70;;;12.75;;
81864;SDS011;71313;43.514;1.500;2024-02-04T03:47:20;33.92;;;12.23;;
81864;SDS011;71313;43.514;1.500;2024-02-04T03:49:46;32.63;;;12.75;;
81864;SDS011;71313;43.514;1.500;2024-02-04T03:52:12;30.13;;;11.68;;
81864;SDS011;71313;43.514;1.500;2024-02-04T03:54:38;29.80;;;11.55;;
81864;SDS011;71313;43.514;1.500;2024-02-04T03:57:03;29.52;;;11.68;;
81864;SDS011;71313;43.514;1.500;2024-02-04T03:59:29;29.15;;;10.70;;
81864;SDS011;71313;43.514;1.500;2024-02-04T04:01:54;29.40;;;12.07;;
81864;SDS011;71313;43.514;1.500;2024-02-04T04:04:20;29.90;;;12.30;;
81864;SDS011;71313;43.514;1.500;2024-02-04T04:06:45;30.05;;;11.57;;
81864;SDS011;71313;43.514;1.500;2024-02-04T04:09:11;27.90;;;11.15;;
81864;SDS011;71313;43.514;1.500;2024-02-04T04:11:36;30.67;;;11.45;;
81864;SDS011;71313;43.514;1.500;2024-02-04T04:14:02;30.95;;;11.68;;
81864;SDS011;71313;43.514;1.500;2024-02-04T04:16:27;29.75;;;11.23;;
81864;SDS011;71313;43.514;1.500;2024-02-04T04:18:53;30.75;;;11.63;;
81864;SDS011;71313;43.514;1.500;2024-02-04T04:21:18;28.35;;;10.82;;
81864;SDS011;71313;43.514;1.500;2024-02-04T04:23:44;28.10;;;10.65;;
81864;SDS011;71313;43.514;1.500;2024-02-04T04:26:09;26.60;;;10.20;;
81864;SDS011;71313;43.514;1.500;2024-02-04T04:28:35;27.70;;;11.30;;
81864;SDS011;71313;43.514;1.500;2024-02-04T04:31:00;27.42;;;10.50;;
81864;SDS011;71313;43.514;1.500;2024-02-04T04:33:26;29.65;;;11.07;;
81864;SDS011;71313;43.514;1.500;2024-02-04T04:35:51;27.95;;;11.27;;
81864;SDS011;71313;43.514;1.500;2024-02-04T04:38:16;28.83;;;11.40;;
81864;SDS011;71313;43.514;1.500;2024-02-04T04:40:42;32.97;;;11.82;;
81864;SDS011;71313;43.514;1.500;2024-02-04T04:43:07;28.95;;;11.57;;
81864;SDS011;71313;43.514;1.500;2024-02-04T04:45:33;28.40;;;11.35;;
81864;SDS011;71313;43.514;1.500;2024-02-04T04:47:58;29.05;;;11.05;;
81864;SDS011;71313;43.514;1.500;2024-02-04T04:50:23;31.85;;;11.45;;
81864;SDS011;71313;43.514;1.500;2024-02-04T04:52:49;31.45;;;12.15;;
81864;SDS011;71313;43.514;1.500;2024-02-04T04:55:14;34.83;;;12.80;;
81864;SDS011;71313;43.514;1.500;2024-02-04T04:57:40;36.45;;;14.15;;
81864;SDS011;71313;43.514;1.500;2024-02-04T05:00:05;32.45;;;11.85;;
81864;SDS011;71313;43.514;1.500;2024-02-04T05:02:34;34.78;;;12.48;;
81864;SDS011;71313;43.514;1.500;2024-02-04T05:05:00;31.88;;;12.40;;
81864;SDS011;71313;43.514;1.500;2024-02-04T05:07:25;31.17;;;12.43;;
81864;SDS011;71313;43.514;1.500;2024-02-04T05:09:51;34.45;;;11.77;;
81864;SDS011;71313;43.514;1.500;2024-02-04T05:12:17;29.23;;;12.13;;
81864;SDS011;71313;43.514;1.500;2024-02-04T05:14:42;29.92;;;12.07;;
81864;SDS011;71313;43.514;1.500;2024-02-04T05:17:07;28.80;;;11.80;;
81864;SDS011;71313;43.514;1.500;2024-02-04T05:19:34;29.67;;;11.38;;
81864;SDS011;71313;43.514;1.500;2024-02-04T05:22:00;31.20;;;11.82;;
81864;SDS011;71313;43.514;1.500;2024-02-04T05:24:25;32.08;;;12.50;;
81864;SDS011;71313;43.514;1.500;2024-02-04T05:26:51;31.60;;;12.13;;
81864;SDS011;71313;43.514;1.500;2024-02-04T05:29:16;37.72;;;13.38;;
81864;SDS011;71313;43.514;1.500;2024-02-04T05:31:42;36.40;;;13.07;;
81864;SDS011;71313;43.514;1.500;2024-02-04T05:34:08;38.83;;;13.27;;
81864;SDS011;71313;43.514;1.500;2024-02-04T05:36:33;38.78;;;14.52;;
81864;SDS011;71313;43.514;1.500;2024-02-04T05:39:08;34.72;;;12.75;;
81864;SDS011;71313;43.514;1.500;2024-02-04T05:41:35;31.35;;;12.73;;
81864;SDS011;71313;43.514;1.500;2024-02-04T05:44:01;30.13;;;11.77;;
81864;SDS011;71313;43.514;1.500;2024-02-04T05:46:26;36.58;;;13.90;;
81864;SDS011;71313;43.514;1.500;2024-02-04T05:48:52;35.40;;;13.15;;
81864;SDS011;71313;43.514;1.500;2024-02-04T05:51:18;37.42;;;13.98;;
81864;SDS011;71313;43.514;1.500;2024-02-04T05:53:43;37.15;;;13.73;;
81864;SDS011;71313;43.514;1.500;2024-02-04T05:56:08;38.33;;;14.25;;
81864;SDS011;71313;43.514;1.500;2024-02-04T05:58:34;33.70;;;12.30;;
81864;SDS011;71313;43.514;1.500;2024-02-04T06:00:59;33.58;;;12.82;;
81864;SDS011;71313;43.514;1.500;2024-02-04T06:03:25;34.83;;;13.10;;
81864;SDS011;71313;43.514;1.500;2024-02-04T06:05:50;35.38;;;13.13;;
81864;SDS011;71313;43.514;1.500;2024-02-04T06:08:15;33.70;;;12.23;;
81864;SDS011;71313;43.514;1.500;2024-02-04T06:10:41;32.38;;;11.77;;
81864;SDS011;71313;43.514;1.500;2024-02-04T06:13:06;30.63;;;12.00;;
81864;SDS011;71313;43.514;1.500;2024-02-04T06:15:32;33.95;;;13.23;;
81864;SDS011;71313;43.514;1.500;2024-02-04T06:17:57;34.90;;;12.45;;
81864;SDS011;71313;43.514;1.500;2024-02-04T06:20:23;30.73;;;11.55;;
81864;SDS011;71313;43.514;1.500;2024-02-04T06:22:48;32.10;;;12.10;;
81864;SDS011;71313;43.514;1.500;2024-02-04T06:25:13;31.05;;;11.55;;
81864;SDS011;71313;43.514;1.500;2024-02-04T06:27:39;30.85;;;13.25;;
81864;SDS011;71313;43.514;1.500;2024-02-04T06:30:05;32.03;;;12.50;;
81864;SDS011;71313;43.514;1.500;2024-02-04T06:32:31;37.45;;;13.13;;
81864;SDS011;71313;43.514;1.500;2024-02-04T06:34:56;37.20;;;13.30;;
81864;SDS011;71313;43.514;1.500;2024-02-04T06:37:23;37.30;;;12.90;;
81864;SDS011;71313;43.514;1.500;2024-02-04T06:39:48;33.95;;;13.57;;
81864;SDS011;71313;43.514;1.500;2024-02-04T06:42:14;35.85;;;12.75;;
81864;SDS011;71313;43.514;1.500;2024-02-04T06:44:42;37.38;;;13.75;;
81864;SDS011;71313;43.514;1.500;2024-02-04T06:47:08;34.95;;;12.90;;
81864;SDS011;71313;43.514;1.500;2024-02-04T06:49:35;31.73;;;11.98;;
81864;SDS011;71313;43.514;1.500;2024-02-04T06:52:01;31.67;;;12.23;;
81864;SDS011;71313;43.514;1.500;2024-02-04T06:54:26;32.60;;;12.48;;
81864;SDS011;71313;43.514;1.500;2024-02-04T06:56:52;32.38;;;12.10;;
81864;SDS011;71313;43.514;1.500;2024-02-04T06:59:18;36.10;;;13.15;;
81864;SDS011;71313;43.514;1.500;2024-02-04T07:01:43;33.20;;;13.38;;
81864;SDS011;71313;43.514;1.500;2024-02-04T07:04:09;38.65;;;13.77;;
81864;SDS011;71313;43.514;1.500;2024-02-04T07:06:34;31.60;;;12.32;;
81864;SDS011;71313;43.514;1.500;2024-02-04T07:09:00;30.02;;;10.90;;
81864;SDS011;71313;43.514;1.500;2024-02-04T07:11:25;30.33;;;11.23;;
81864;SDS011;71313;43.514;1.500;2024-02-04T07:13:50;33.85;;;12.20;;
81864;SDS011;71313;43.514;1.500;2024-02-04T07:16:23;36.50;;;12.52;;
81864;SDS011;71313;43.514;1.500;2024-02-04T07:18:49;33.30;;;12.15;;
81864;SDS011;71313;43.514;1.500;2024-02-04T07:21:14;32.33;;;12.13;;
81864;SDS011;71313;43.514;1.500;2024-02-04T07:23:39;32.13;;;11.77;;
81864;SDS011;71313;43.514;1.500;2024-02-04T07:26:05;33.72;;;12.57;;
81864;SDS011;71313;43.514;1.500;2024-02-04T07:28:30;32.88;;;12.70;;
81864;SDS011;71313;43.514;1.500;2024-02-04T07:30:55;33.35;;;12.23;;
81864;SDS011;71313;43.514;1.500;2024-02-04T07:33:21;33.00;;;12.85;;
81864;SDS011;71313;43.514;1.500;2024-02-04T07:35:46;38.30;;;13.68;;
81864;SDS011;71313;43.514;1.500;2024-02-04T07:38:11;37.63;;;14.10;;
81864;SDS011;71313;43.514;1.500;2024-02-04T07:40:37;37.85;;;13.60;;
81864;SDS011;71313;43.514;1.500;2024-02-04T07:43:02;32.08;;;12.35;;
81864;SDS011;71313;43.514;1.500;2024-02-04T07:45:28;34.30;;;12.23;;
81864;SDS011;71313;43.514;1.500;2024-02-04T07:47:53;37.67;;;14.20;;
81864;SDS011;71313;43.514;1.500;2024-02-04T07:50:18;38.42;;;13.52;;
81864;SDS011;71313;43.514;1.500;2024-02-04T07:52:44;36.35;;;13.65;;
81864;SDS011;71313;43.514;1.500;2024-02-04T07:55:09;32.35;;;11.98;;
81864;SDS011;71313;43.514;1.500;2024-02-04T07:57:35;39.05;;;13.60;;
81864;SDS011;71313;43.514;1.500;2024-02-04T08:00:00;34.50;;;13.60;;
81864;SDS011;71313;43.514;1.500;2024-02-04T08:02:29;35.70;;;13.45;;
81864;SDS011;71313;43.514;1.500;2024-02-04T08:04:54;36.15;;;14.02;;
81864;SDS011;71313;43.514;1.500;2024-02-04T08:07:19;34.95;;;12.60;;
81864;SDS011;71313;43.514;1.500;2024-02-04T08:09:45;33.53;;;12.38;;
81864;SDS011;71313;43.514;1.500;2024-02-04T08:12:11;37.00;;;13.15;;
81864;SDS011;71313;43.514;1.500;2024-02-04T08:14:36;39.65;;;13.82;;
81864;SDS011;71313;43.514;1.500;2024-02-04T08:17:02;37.53;;;12.48;;
81864;SDS011;71313;43.514;1.500;2024-02-04T08:19:28;35.67;;;14.18;;
81864;SDS011;71313;43.514;1.500;2024-02-04T08:21:53;36.25;;;13.45;;
81864;SDS011;71313;43.514;1.500;2024-02-04T08:24:18;35.10;;;13.25;;
81864;SDS011;71313;43.514;1.500;2024-02-04T08:26:44;40.50;;;13.20;;
81864;SDS011;71313;43.514;1.500;2024-02-04T08:29:10;35.92;;;13.10;;
81864;SDS011;71313;43.514;1.500;2024-02-04T08:31:36;33.80;;;12.90;;
81864;SDS011;71313;43.514;1.500;2024-02-04T08:34:01;35.90;;;12.75;;
81864;SDS011;71313;43.514;1.500;2024-02-04T08:36:27;43.40;;;12.70;;
81864;SDS011;71313;43.514;1.500;2024-02-04T08:38:55;37.00;;;14.13;;
81864;SDS011;71313;43.514;1.500;2024-02-04T08:41:20;40.42;;;13.73;;
81864;SDS011;71313;43.514;1.500;2024-02-04T08:43:45;36.58;;;13.35;;
81864;SDS011;71313;43.514;1.500;2024-02-04T08:46:11;34.00;;;13.65;;
81864;SDS011;71313;43.514;1.500;2024-02-04T08:48:37;41.58;;;13.55;;
81864;SDS011;71313;43.514;1.500;2024-02-04T08:51:02;32.38;;;13.23;;
81864;SDS011;71313;43.514;1.500;2024-02-04T08:53:28;38.00;;;13.23;;
81864;SDS011;71313;43.514;1.500;2024-02-04T08:55:53;39.72;;;12.27;;
81864;SDS011;71313;43.514;1.500;2024-02-04T08:58:19;33.40;;;11.88;;
81864;SDS011;71313;43.514;1.500;2024-02-04T09:00:44;36.70;;;12.82;;
81864;SDS011;71313;43.514;1.500;2024-02-04T09:03:09;29.73;;;11.70;;
81864;SDS011;71313;43.514;1.500;2024-02-04T09:05:35;32.20;;;11.10;;
81864;SDS011;71313;43.514;1.500;2024-02-04T09:08:00;32.25;;;11.07;;
81864;SDS011;71313;43.514;1.500;2024-02-04T09:10:26;33.30;;;11.27;;
81864;SDS011;71313;43.514;1.500;2024-02-04T09:12:52;35.45;;;12.57;;
81864;SDS011;71313;43.514;1.500;2024-02-04T09:15:17;35.35;;;12.25;;
81864;SDS011;71313;43.514;1.500;2024-02-04T09:17:43;30.67;;;11.35;;
81864;SDS011;71313;43.514;1.500;2024-02-04T09:20:08;36.80;;;13.00;;
81864;SDS011;71313;43.514;1.500;2024-02-04T09:22:34;37.47;;;14.05;;
81864;SDS011;71313;43.514;1.500;2024-02-04T09:24:59;40.17;;;13.23;;
81864;SDS011;71313;43.514;1.500;2024-02-04T09:27:26;31.42;;;12.20;;
81864;SDS011;71313;43.514;1.500;2024-02-04T09:29:51;34.25;;;13.20;;
81864;SDS011;71313;43.514;1.500;2024-02-04T09:32:17;38.45;;;13.90;;
81864;SDS011;71313;43.514;1.500;2024-02-04T09:34:42;36.20;;;13.93;;
81864;SDS011;71313;43.514;1.500;2024-02-04T09:37:07;39.50;;;12.93;;
81864;SDS011;71313;43.514;1.500;2024-02-04T09:39:33;36.33;;;11.75;;
81864;SDS011;71313;43.514;1.500;2024-02-04T09:41:58;35.13;;;11.48;;
81864;SDS011;71313;43.514;1.500;2024-02-04T09:44:24;32.38;;;11.75;;
81864;SDS011;71313;43.514;1.500;2024-02-04T09:46:50;35.95;;;12.27;;
81864;SDS011;71313;43.514;1.500;2024-02-04T09:49:17;33.60;;;12.73;;
81864;SDS011;71313;43.514;1.500;2024-02-04T09:51:42;32.53;;;11.02;;
81864;SDS011;71313;43.514;1.500;2024-02-04T09:54:09;30.38;;;11.00;;
81864;SDS011;71313;43.514;1.500;2024-02-04T09:56:37;30.98;;;12.27;;
81864;SDS011;71313;43.514;1.500;2024-02-04T09:59:03;29.77;;;11.40;;
81864;SDS011;71313;43.514;1.500;2024-02-04T10:01:29;28.58;;;10.85;;
81864;SDS011;71313;43.514;1.500;2024-02-04T10:03:56;27.13;;;11.13;;
81864;SDS011;71313;43.514;1.500;2024-02-04T10:06:21;23.83;;;10.13;;
81864;SDS011;71313;43.514;1.500;2024-02-04T10:08:47;24.92;;;9.70;;
81864;SDS011;71313;43.514;1.500;2024-02-04T10:11:13;27.50;;;10.45;;
81864;SDS011;71313;43.514;1.500;2024-02-04T10:13:42;23.45;;;9.13;;
81864;SDS011;71313;43.514;1.500;2024-02-04T10:16:09;23.48;;;9.35;;
81864;SDS011;71313;43.514;1.500;2024-02-04T10:18:34;26.73;;;10.52;;
81864;SDS011;71313;43.514;1.500;2024-02-04T10:21:00;25.10;;;11.02;;
81864;SDS011;71313;43.514;1.500;2024-02-04T10:23:25;26.95;;;11.07;;
81864;SDS011;71313;43.514;1.500;2024-02-04T10:25:58;27.20;;;11.63;;
81864;SDS011;71313;43.514;1.500;2024-02-04T10:28:24;31.00;;;11.70;;
81864;SDS011;71313;43.514;1.500;2024-02-04T10:30:49;26.63;;;10.02;;
81864;SDS011;71313;43.514;1.500;2024-02-04T10:33:15;28.10;;;11.30;;
81864;SDS011;71313;43.514;1.500;2024-02-04T10:35:42;27.92;;;10.73;;
81864;SDS011;71313;43.514;1.500;2024-02-04T10:38:07;28.67;;;11.02;;
81864;SDS011;71313;43.514;1.500;2024-02-04T10:40:33;26.92;;;11.00;;
81864;SDS011;71313;43.514;1.500;2024-02-04T10:43:00;26.58;;;11.05;;
81864;SDS011;71313;43.514;1.500;2024-02-04T10:45:29;31.40;;;11.93;;
81864;SDS011;71313;43.514;1.500;2024-02-04T10:47:57;28.73;;;10.82;;
81864;SDS011;71313;43.514;1.500;2024-02-04T10:50:26;32.67;;;11.88;;
81864;SDS011;71313;43.514;1.500;2024-02-04T10:52:54;31.58;;;11.32;;
81864;SDS011;71313;43.514;1.500;2024-02-04T10:55:26;29.70;;;11.70;;
81864;SDS011;71313;43.514;1.500;2024-02-04T10:57:54;32.42;;;12.05;;
81864;SDS011;71313;43.514;1.500;2024-02-04T11:00:20;32.10;;;12.80;;
81864;SDS011;71313;43.514;1.500;2024-02-04T11:02:45;28.15;;;12.10;;
81864;SDS011;71313;43.514;1.500;2024-02-04T11:05:14;34.30;;;12.10;;
81864;SDS011;71313;43.514;1.500;2024-02-04T11:07:42;27.90;;;11.60;;
81864;SDS011;71313;43.514;1.500;2024-02-04T11:10:09;29.52;;;10.82;;
81864;SDS011;71313;43.514;1.500;2024-02-04T11:12:35;26.65;;;11.20;;
81864;SDS011;71313;43.514;1.500;2024-02-04T11:15:05;26.95;;;11.27;;
81864;SDS011;71313;43.514;1.500;2024-02-04T11:25:51;29.73;;;12.15;;
81864;SDS011;71313;43.514;1.500;2024-02-04T11:28:19;30.67;;;11.77;;
81864;SDS011;71313;43.514;1.500;2024-02-04T11:30:46;30.15;;;12.43;;
81864;SDS011;71313;43.514;1.500;2024-02-04T11:33:13;31.83;;;12.77;;
81864;SDS011;71313;43.514;1.500;2024-02-04T11:35:43;31.88;;;12.38;;
81864;SDS011;71313;43.514;1.500;2024-02-04T11:38:09;30.80;;;12.55;;
81864;SDS011;71313;43.514;1.500;2024-02-04T11:40:37;28.77;;;11.25;;
81864;SDS011;71313;43.514;1.500;2024-02-04T11:43:06;26.58;;;10.85;;
81864;SDS011;71313;43.514;1.500;2024-02-04T11:45:32;28.27;;;11.90;;
81864;SDS011;71313;43.514;1.500;2024-02-04T11:48:01;27.23;;;11.02;;
81864;SDS011;71313;43.514;1.500;2024-02-04T11:50:28;25.73;;;10.52;;
81864;SDS011;71313;43.514;1.500;2024-02-04T11:53:12;24.73;;;10.68;;
81864;SDS011;71313;43.514;1.500;2024-02-04T11:55:39;23.92;;;9.57;;
81864;SDS011;71313;43.514;1.500;2024-02-04T11:58:06;23.83;;;9.90;;
81864;SDS011;71313;43.514;1.500;2024-02-04T12:00:35;21.75;;;9.20;;
81864;SDS011;71313;43.514;1.500;2024-02-04T12:03:01;24.80;;;10.60;;
81864;SDS011;71313;43.514;1.500;2024-02-04T12:05:28;24.88;;;9.93;;
81864;SDS011;71313;43.514;1.500;2024-02-04T12:07:56;24.20;;;9.38;;
81864;SDS011;71313;43.514;1.500;2024-02-04T12:10:21;20.30;;;9.50;;
81864;SDS011;71313;43.514;1.500;2024-02-04T12:12:47;24.50;;;11.43;;
81864;SDS011;71313;43.514;1.500;2024-02-04T12:15:13;22.30;;;10.23;;
81864;SDS011;71313;43.514;1.500;2024-02-04T12:17:39;22.80;;;9.85;;
81864;SDS011;71313;43.514;1.500;2024-02-04T12:20:05;21.17;;;9.75;;
81864;SDS011;71313;43.514;1.500;2024-02-04T12:22:31;27.35;;;11.18;;
81864;SDS011;71313;43.514;1.500;2024-02-04T12:24:58;24.38;;;11.05;;
81864;SDS011;71313;43.514;1.500;2024-02-04T12:27:23;23.80;;;10.18;;
81864;SDS011;71313;43.514;1.500;2024-02-04T12:29:52;24.23;;;10.55;;
81864;SDS011;71313;43.514;1.500;2024-02-04T12:32:18;25.52;;;11.30;;
81864;SDS011;71313;43.514;1.500;2024-02-04T12:34:47;23.65;;;10.60;;
81864;SDS011;71313;43.514;1.500;2024-02-04T12:37:19;19.55;;;9.65;;
81864;SDS011;71313;43.514;1.500;2024-02-04T12:39:44;26.40;;;11.32;;
81864;SDS011;71313;43.514;1.500;2024-02-04T12:42:10;23.73;;;10.90;;
81864;SDS011;71313;43.514;1.500;2024-02-04T12:44:43;21.75;;;10.13;;
81864;SDS011;71313;43.514;1.500;2024-02-04T12:47:18;26.92;;;11.20;;
81864;SDS011;71313;43.514;1.500;2024-02-04T12:49:44;22.83;;;9.80;;
81864;SDS011;71313;43.514;1.500;2024-02-04T12:52:10;20.13;;;10.13;;
81864;SDS011;71313;43.514;1.500;2024-02-04T12:54:45;19.10;;;9.52;;
81864;SDS011;71313;43.514;1.500;2024-02-04T12:57:21;21.17;;;10.48;;
81864;SDS011;71313;43.514;1.500;2024-02-04T12:59:47;22.40;;;10.05;;
81864;SDS011;71313;43.514;1.500;2024-02-04T13:02:13;19.67;;;9.75;;
81864;SDS011;71313;43.514;1.500;2024-02-04T13:04:40;20.10;;;10.55;;
81864;SDS011;71313;43.514;1.500;2024-02-04T13:07:12;23.33;;;10.73;;
81864;SDS011;71313;43.514;1.500;2024-02-04T13:09:45;22.75;;;10.90;;
81864;SDS011;71313;43.514;1.500;2024-02-04T13:12:10;16.20;;;8.18;;
81864;SDS011;71313;43.514;1.500;2024-02-04T13:14:39;17.92;;;9.27;;
81864;SDS011;71313;43.514;1.500;2024-02-04T13:17:05;17.08;;;8.60;;
81864;SDS011;71313;43.514;1.500;2024-02-04T13:19:37;17.50;;;8.50;;
81864;SDS011;71313;43.514;1.500;2024-02-04T13:24:30;16.75;;;8.32;;
81864;SDS011;71313;43.514;1.500;2024-02-04T13:26:56;17.60;;;8.95;;
81864;SDS011;71313;43.514;1.500;2024-02-04T13:29:22;18.98;;;9.23;;
81864;SDS011;71313;43.514;1.500;2024-02-04T13:31:48;18.48;;;9.23;;
81864;SDS011;71313;43.514;1.500;2024-02-04T13:34:13;17.42;;;8.60;;
81864;SDS011;71313;43.514;1.500;2024-02-04T13:36:39;17.70;;;8.40;;
81864;SDS011;71313;43.514;1.500;2024-02-04T13:39:04;17.55;;;8.27;;
81864;SDS011;71313;43.514;1.500;2024-02-04T13:41:31;17.38;;;8.55;;
81864;SDS011;71313;43.514;1.500;2024-02-04T13:43:56;13.98;;;8.10;;
81864;SDS011;71313;43.514;1.500;2024-02-04T13:46:22;15.38;;;9.45;;
81864;SDS011;71313;43.514;1.500;2024-02-04T13:48:47;14.18;;;7.93;;
81864;SDS011;71313;43.514;1.500;2024-02-04T13:51:13;15.38;;;7.80;;
81864;SDS011;71313;43.514;1.500;2024-02-04T13:53:38;16.42;;;8.35;;
81864;SDS011;71313;43.514;1.500;2024-02-04T13:56:04;17.42;;;9.55;;
81864;SDS011;71313;43.514;1.500;2024-02-04T13:58:30;18.80;;;10.25;;
81864;SDS011;71313;43.514;1.500;2024-02-04T14:00:56;17.95;;;8.93;;
81864;SDS011;71313;43.514;1.500;2024-02-04T14:03:22;15.98;;;9.18;;
81864;SDS011;71313;43.514;1.500;2024-02-04T14:05:47;18.65;;;9.88;;
81864;SDS011;71313;43.514;1.500;2024-02-04T14:08:13;17.92;;;9.45;;
81864;SDS011;71313;43.514;1.500;2024-02-04T14:10:39;14.73;;;8.68;;
81864;SDS011;71313;43.514;1.500;2024-02-04T14:13:05;14.43;;;8.18;;
81864;SDS011;71313;43.514;1.500;2024-02-04T14:15:30;12.80;;;7.75;;
81864;SDS011;71313;43.514;1.500;2024-02-04T14:17:56;13.45;;;7.45;;
81864;SDS011;71313;43.514;1.500;2024-02-04T14:20:22;10.77;;;6.72;;
81864;SDS011;71313;43.514;1.500;2024-02-04T14:22:47;13.32;;;7.40;;
81864;SDS011;71313;43.514;1.500;2024-02-04T14:25:13;14.93;;;8.00;;
81864;SDS011;71313;43.514;1.500;2024-02-04T14:27:38;16.58;;;9.10;;
81864;SDS011;71313;43.514;1.500;2024-02-04T14:30:04;14.32;;;8.10;;
81864;SDS011;71313;43.514;1.500;2024-02-04T14:32:31;14.43;;;8.30;;